sensor_id;sensor_type;location;lat;lon;timestamp;pressure;altitude;pressure_sealevel;temperature;humidity
8398;BME280;4236;54.504;9.588;2023-02-19T00:01:29;101458.16;;;2.89;100.00
8398;BME280;4236;54.504;9.588;2023-02-19T00:04:00;101464.94;;;2.92;100.00
8398;BME280;4236;54.504;9.588;2023-02-19T00:06:29;101462.06;;;2.95;100.00
8398;BME280;4236;54.504;9.588;2023-02-19T00:08:58;101466.34;;;2.96;100.00
8398;BME280;4236;54.504;9.588;2023-02-19T00:11:27;101471.59;;;2.96;100.00
8398;BME280;4236;54.504;9.588;2023-02-19T00:13:56;101474.72;;;3.01;100.00
8398;BME280;4236;54.504;9.588;2023-02-19T00:16:25;101479.72;;;3.04;100.00
8398;BME280;4236;54.504;9.588;2023-02-19T00:18:54;101482.94;;;3.07;100.00
8398;BME280;4236;54.504;9.588;2023-02-19T00:21:24;101481.00;;;3.09;100.00
8398;BME280;4236;54.504;9.588;2023-02-19T00:23:54;101481.56;;;3.13;100.00
8398;BME280;4236;54.504;9.588;2023-02-19T00:26:22;101482.16;;;3.16;100.00
8398;BME280;4236;54.504;9.588;2023-02-19T00:28:51;101487.84;;;3.21;100.00
8398;BME280;4236;54.504;9.588;2023-02-19T00:31:21;101484.38;;;3.21;100.00
8398;BME280;4236;54.504;9.588;2023-02-19T00:33:51;101477.06;;;3.24;100.00
8398;BME280;4236;54.504;9.588;2023-02-19T00:36:20;101492.72;;;3.26;100.00
8398;BME280;4236;54.504;9.588;2023-02-19T00:38:50;101486.13;;;3.31;100.00
8398;BME280;4236;54.504;9.588;2023-02-19T00:41:19;101492.19;;;3.32;100.00
8398;BME280;4236;54.504;9.588;2023-02-19T00:43:48;101494.56;;;3.35;100.00
8398;BME280;4236;54.504;9.588;2023-02-19T00:46:18;101487.50;;;3.35;100.00
8398;BME280;4236;54.504;9.588;2023-02-19T00:48:47;101489.88;;;3.39;100.00
8398;BME280;4236;54.504;9.588;2023-02-19T00:51:15;101494.03;;;3.41;100.00
8398;BME280;4236;54.504;9.588;2023-02-19T00:53:42;101499.19;;;3.43;100.00
8398;BME280;4236;54.504;9.588;2023-02-19T00:56:12;101497.25;;;3.45;100.00
8398;BME280;4236;54.504;9.588;2023-02-19T00:58:40;101490.88;;;3.47;100.00
8398;BME280;4236;54.504;9.588;2023-02-19T01:01:09;101492.56;;;3.48;100.00
8398;BME280;4236;54.504;9.588;2023-02-19T01:03:38;101491.59;;;3.49;100.00
8398;BME280;4236;54.504;9.588;2023-02-19T01:06:07;101489.66;;;3.51;100.00
8398;BME280;4236;54.504;9.588;2023-02-19T01:08:36;101485.91;;;3.54;100.00
8398;BME280;4236;54.504;9.588;2023-02-19T01:11:06;101494.41;;;3.57;100.00
8398;BME280;4236;54.504;9.588;2023-02-19T01:13:36;101501.22;;;3.60;100.00
8398;BME280;4236;54.504;9.588;2023-02-19T01:16:05;101493.72;;;3.55;100.00
8398;BME280;4236;54.504;9.588;2023-02-19T01:18:33;101494.97;;;3.61;100.00
8398;BME280;4236;54.504;9.588;2023-02-19T01:21:04;101499.84;;;3.65;100.00
8398;BME280;4236;54.504;9.588;2023-02-19T01:23:33;101501.38;;;3.68;100.00
8398;BME280;4236;54.504;9.588;2023-02-19T01:26:03;101498.72;;;3.68;100.00
8398;BME280;4236;54.504;9.588;2023-02-19T01:28:31;101501.94;;;3.71;100.00
8398;BME280;4236;54.504;9.588;2023-02-19T01:31:01;101494.72;;;3.73;100.00
8398;BME280;4236;54.504;9.588;2023-02-19T01:33:29;101491.81;;;3.76;100.00
8398;BME280;4236;54.504;9.588;2023-02-19T01:35:58;101490.84;;;3.77;100.00
8398;BME280;4236;54.504;9.588;2023-02-19T01:38:26;101493.38;;;3.79;100.00
8398;BME280;4236;54.504;9.588;2023-02-19T01:40:54;101489.88;;;3.78;100.00
8398;BME280;4236;54.504;9.588;2023-02-19T01:43:23;101491.81;;;3.76;100.00
8398;BME280;4236;54.504;9.588;2023-02-19T01:45:51;101496.97;;;3.78;100.00
8398;BME280;4236;54.504;9.588;2023-02-19T01:48:23;101496.00;;;3.79;100.00
8398;BME280;4236;54.504;9.588;2023-02-19T01:50:55;101496.81;;;3.79;100.00
8398;BME280;4236;54.504;9.588;2023-02-19T01:53:27;101491.53;;;3.79;100.00
8398;BME280;4236;54.504;9.588;2023-02-19T01:55:58;101494.34;;;3.78;100.00
8398;BME280;4236;54.504;9.588;2023-02-19T01:58:30;101494.34;;;3.78;100.00
8398;BME280;4236;54.504;9.588;2023-02-19T02:01:01;101484.72;;;3.77;100.00
8398;BME280;4236;54.504;9.588;2023-02-19T02:03:32;101477.66;;;3.77;100.00
8398;BME280;4236;54.504;9.588;2023-02-19T02:06:02;101488.22;;;3.77;100.00
8398;BME280;4236;54.504;9.588;2023-02-19T02:08:32;101481.25;;;3.76;100.00
8398;BME280;4236;54.504;9.588;2023-02-19T02:11:18;101477.81;;;3.76;100.00
8398;BME280;4236;54.504;9.588;2023-02-19T02:13:47;101482.38;;;3.74;100.00
8398;BME280;4236;54.504;9.588;2023-02-19T02:16:23;101475.28;;;3.74;100.00
8398;BME280;4236;54.504;9.588;2023-02-19T02:19:01;101477.34;;;3.71;100.00
8398;BME280;4236;54.504;9.588;2023-02-19T02:21:47;101478.34;;;3.70;100.00
8398;BME280;4236;54.504;9.588;2023-02-19T02:24:38;101473.06;;;3.70;100.00
8398;BME280;4236;54.504;9.588;2023-02-19T02:27:29;101470.56;;;3.68;100.00
8398;BME280;4236;54.504;9.588;2023-02-19T02:30:20;101472.22;;;3.69;100.00
8398;BME280;4236;54.504;9.588;2023-02-19T02:32:56;101471.38;;;3.69;100.00
8398;BME280;4236;54.504;9.588;2023-02-19T02:35:29;101476.66;;;3.69;100.00
8398;BME280;4236;54.504;9.588;2023-02-19T02:38:01;101478.63;;;3.67;100.00
8398;BME280;4236;54.504;9.588;2023-02-19T02:40:31;101470.97;;;3.64;100.00
8398;BME280;4236;54.504;9.588;2023-02-19T02:42:59;101470.97;;;3.64;100.00
8398;BME280;4236;54.504;9.588;2023-02-19T02:45:31;101468.34;;;3.64;100.00
8398;BME280;4236;54.504;9.588;2023-02-19T02:48:10;101470.13;;;3.63;100.00
8398;BME280;4236;54.504;9.588;2023-02-19T02:50:42;101474.56;;;3.63;100.00
8398;BME280;4236;54.504;9.588;2023-02-19T02:53:17;101477.34;;;3.61;100.00
8398;BME280;4236;54.504;9.588;2023-02-19T02:56:04;101482.63;;;3.61;100.00
8398;BME280;4236;54.504;9.588;2023-02-19T02:58:32;101482.91;;;3.58;100.00
8398;BME280;4236;54.504;9.588;2023-02-19T03:01:05;101489.97;;;3.58;100.00
8398;BME280;4236;54.504;9.588;2023-02-19T03:03:55;101500.31;;;3.50;100.00
8398;BME280;4236;54.504;9.588;2023-02-19T03:06:28;101496.31;;;3.46;100.00
8398;BME280;4236;54.504;9.588;2023-02-19T03:09:00;101488.50;;;3.44;100.00
8398;BME280;4236;54.504;9.588;2023-02-19T03:11:30;101496.00;;;3.39;100.00
8398;BME280;4236;54.504;9.588;2023-02-19T03:14:21;101497.09;;;3.37;100.00
8398;BME280;4236;54.504;9.588;2023-02-19T03:17:14;101509.00;;;3.31;100.00
8398;BME280;4236;54.504;9.588;2023-02-19T03:20:04;101504.94;;;3.27;100.00
8398;BME280;4236;54.504;9.588;2023-02-19T03:22:35;101498.13;;;3.24;100.00
8398;BME280;4236;54.504;9.588;2023-02-19T03:25:09;101501.88;;;3.22;100.00
8398;BME280;4236;54.504;9.588;2023-02-19T03:27:58;101506.69;;;3.17;100.00
8398;BME280;4236;54.504;9.588;2023-02-19T03:30:29;101511.41;;;3.13;100.00
8398;BME280;4236;54.504;9.588;2023-02-19T03:33:00;101511.91;;;3.07;100.00
8398;BME280;4236;54.504;9.588;2023-02-19T03:35:36;101522.25;;;2.99;100.00
8398;BME280;4236;54.504;9.588;2023-02-19T03:38:10;101526.13;;;2.95;100.00
8398;BME280;4236;54.504;9.588;2023-02-19T03:40:51;101525.78;;;2.89;100.00
8398;BME280;4236;54.504;9.588;2023-02-19T03:43:26;101527.25;;;2.82;100.00
8398;BME280;4236;54.504;9.588;2023-02-19T03:46:06;101535.66;;;2.75;100.00
8398;BME280;4236;54.504;9.588;2023-02-19T03:48:40;101537.84;;;2.70;100.00
8398;BME280;4236;54.504;9.588;2023-02-19T03:51:31;101535.97;;;2.61;100.00
8398;BME280;4236;54.504;9.588;2023-02-19T03:54:15;101543.28;;;2.58;100.00
8398;BME280;4236;54.504;9.588;2023-02-19T03:56:49;101546.31;;;2.53;100.00
8398;BME280;4236;54.504;9.588;2023-02-19T03:59:25;101549.31;;;2.49;100.00
8398;BME280;4236;54.504;9.588;2023-02-19T04:01:59;101546.22;;;2.44;100.00
8398;BME280;4236;54.504;9.588;2023-02-19T04:04:31;101551.84;;;2.39;100.00
8398;BME280;4236;54.504;9.588;2023-02-19T04:07:02;101566.94;;;2.37;100.00
8398;BME280;4236;54.504;9.588;2023-02-19T04:09:33;101561.91;;;2.34;100.00
8398;BME280;4236;54.504;9.588;2023-02-19T04:12:04;101576.88;;;2.34;100.00
8398;BME280;4236;54.504;9.588;2023-02-19T04:14:35;101576.75;;;2.35;100.00
8398;BME280;4236;54.504;9.588;2023-02-19T04:17:07;101583.91;;;2.33;100.00
8398;BME280;4236;54.504;9.588;2023-02-19T04:19:38;101586.31;;;2.36;100.00
8398;BME280;4236;54.504;9.588;2023-02-19T04:22:09;101589.06;;;2.35;100.00
8398;BME280;4236;54.504;9.588;2023-02-19T04:24:40;101592.41;;;2.37;100.00
8398;BME280;4236;54.504;9.588;2023-02-19T04:27:09;101593.97;;;2.39;100.00
8398;BME280;4236;54.504;9.588;2023-02-19T04:29:37;101597.44;;;2.40;100.00
8398;BME280;4236;54.504;9.588;2023-02-19T04:32:05;101605.56;;;2.37;100.00
8398;BME280;4236;54.504;9.588;2023-02-19T04:34:33;101604.88;;;2.35;100.00
8398;BME280;4236;54.504;9.588;2023-02-19T04:37:02;101599.47;;;2.36;100.00
8398;BME280;4236;54.504;9.588;2023-02-19T04:39:30;101606.66;;;2.34;100.00
8398;BME280;4236;54.504;9.588;2023-02-19T04:41:57;101609.28;;;2.34;100.00
8398;BME280;4236;54.504;9.588;2023-02-19T04:44:25;101608.19;;;2.37;100.00
8398;BME280;4236;54.504;9.588;2023-02-19T04:46:54;101609.28;;;2.34;100.00
8398;BME280;4236;54.504;9.588;2023-02-19T04:49:22;101607.59;;;2.33;100.00
8398;BME280;4236;54.504;9.588;2023-02-19T04:51:49;101608.69;;;2.31;100.00
8398;BME280;4236;54.504;9.588;2023-02-19T04:54:18;101605.13;;;2.32;100.00
8398;BME280;4236;54.504;9.588;2023-02-19T04:56:46;101610.38;;;2.32;100.00
8398;BME280;4236;54.504;9.588;2023-02-19T04:59:16;101614.09;;;2.29;100.00
8398;BME280;4236;54.504;9.588;2023-02-19T05:01:43;101618.50;;;2.29;100.00
8398;BME280;4236;54.504;9.588;2023-02-19T05:04:11;101618.63;;;2.27;100.00
8398;BME280;4236;54.504;9.588;2023-02-19T05:06:39;101623.19;;;2.25;100.00
8398;BME280;4236;54.504;9.588;2023-02-19T05:09:06;101624.97;;;2.24;100.00
8398;BME280;4236;54.504;9.588;2023-02-19T05:11:35;101628.44;;;2.25;100.00
8398;BME280;4236;54.504;9.588;2023-02-19T05:14:03;101630.38;;;2.23;100.00
8398;BME280;4236;54.504;9.588;2023-02-19T05:16:31;101635.50;;;2.24;100.00
8398;BME280;4236;54.504;9.588;2023-02-19T05:18:59;101633.72;;;2.25;100.00
8398;BME280;4236;54.504;9.588;2023-02-19T05:21:27;101636.47;;;2.23;100.00
8398;BME280;4236;54.504;9.588;2023-02-19T05:23:55;101639.91;;;2.24;100.00
8398;BME280;4236;54.504;9.588;2023-02-19T05:26:23;101642.44;;;2.26;100.00
8398;BME280;4236;54.504;9.588;2023-02-19T05:28:52;101644.13;;;2.27;100.00
8398;BME280;4236;54.504;9.588;2023-02-19T05:31:20;101653.91;;;2.24;100.00
8398;BME280;4236;54.504;9.588;2023-02-19T05:33:48;101665.28;;;2.25;100.00
8398;BME280;4236;54.504;9.588;2023-02-19T05:36:19;101654.91;;;2.23;100.00
8398;BME280;4236;54.504;9.588;2023-02-19T05:38:51;101652.38;;;2.22;100.00
8398;BME280;4236;54.504;9.588;2023-02-19T05:41:21;101666.22;;;2.24;100.00
8398;BME280;4236;54.504;9.588;2023-02-19T05:43:50;101675.09;;;2.23;100.00
8398;BME280;4236;54.504;9.588;2023-02-19T05:46:20;101672.94;;;2.28;100.00
8398;BME280;4236;54.504;9.588;2023-02-19T05:48:50;101670.31;;;2.28;100.00
8398;BME280;4236;54.504;9.588;2023-02-19T05:51:20;101675.56;;;2.28;100.00
8398;BME280;4236;54.504;9.588;2023-02-19T05:53:49;101682.75;;;2.26;100.00
8398;BME280;4236;54.504;9.588;2023-02-19T05:56:25;101691.75;;;2.23;100.00
8398;BME280;4236;54.504;9.588;2023-02-19T05:58:53;101691.75;;;2.23;100.00
8398;BME280;4236;54.504;9.588;2023-02-19T06:01:25;101696.16;;;2.23;100.00
8398;BME280;4236;54.504;9.588;2023-02-19T06:03:53;101695.19;;;2.24;100.00
8398;BME280;4236;54.504;9.588;2023-02-19T06:06:23;101693.53;;;2.23;100.00
8398;BME280;4236;54.504;9.588;2023-02-19T06:08:52;101697.00;;;2.23;100.00
8398;BME280;4236;54.504;9.588;2023-02-19T06:11:20;101707.41;;;2.25;100.00
8398;BME280;4236;54.504;9.588;2023-02-19T06:13:48;101710.97;;;2.24;100.00
8398;BME280;4236;54.504;9.588;2023-02-19T06:16:17;101716.22;;;2.24;100.00
8398;BME280;4236;54.504;9.588;2023-02-19T06:18:47;101722.56;;;2.21;100.00
8398;BME280;4236;54.504;9.588;2023-02-19T06:21:15;101716.50;;;2.21;100.00
8398;BME280;4236;54.504;9.588;2023-02-19T06:23:44;101721.03;;;2.19;100.00
8398;BME280;4236;54.504;9.588;2023-02-19T06:26:14;101729.66;;;2.21;100.00
8398;BME280;4236;54.504;9.588;2023-02-19T06:28:43;101734.94;;;2.21;100.00
8398;BME280;4236;54.504;9.588;2023-02-19T06:31:11;101742.81;;;2.21;100.00
8398;BME280;4236;54.504;9.588;2023-02-19T06:33:40;101745.56;;;2.19;100.00
8398;BME280;4236;54.504;9.588;2023-02-19T06:36:12;101750.94;;;2.18;100.00
8398;BME280;4236;54.504;9.588;2023-02-19T06:38:40;101751.06;;;2.16;100.00
8398;BME280;4236;54.504;9.588;2023-02-19T06:41:09;101758.00;;;2.17;100.00
8398;BME280;4236;54.504;9.588;2023-02-19T06:43:37;101757.16;;;2.17;100.00
8398;BME280;4236;54.504;9.588;2023-02-19T06:46:06;101758.94;;;2.16;100.00
8398;BME280;4236;54.504;9.588;2023-02-19T06:48:34;101764.22;;;2.16;100.00
8398;BME280;4236;54.504;9.588;2023-02-19T06:51:02;101770.41;;;2.15;100.00
8398;BME280;4236;54.504;9.588;2023-02-19T06:53:31;101779.06;;;2.17;100.00
8398;BME280;4236;54.504;9.588;2023-02-19T06:56:00;101781.78;;;2.16;100.00
8398;BME280;4236;54.504;9.588;2023-02-19T06:58:28;101787.19;;;2.14;100.00
8398;BME280;4236;54.504;9.588;2023-02-19T07:00:56;101785.41;;;2.15;100.00
8398;BME280;4236;54.504;9.588;2023-02-19T07:03:24;101793.38;;;2.13;100.00
8398;BME280;4236;54.504;9.588;2023-02-19T07:05:52;101794.09;;;2.15;100.00
8398;BME280;4236;54.504;9.588;2023-02-19T07:08:20;101799.25;;;2.17;100.00
8398;BME280;4236;54.504;9.588;2023-02-19T07:10:55;101808.09;;;2.16;100.00
8398;BME280;4236;54.504;9.588;2023-02-19T07:13:23;101803.69;;;2.16;100.00
8398;BME280;4236;54.504;9.588;2023-02-19T07:15:57;101816.50;;;2.21;100.00
8398;BME280;4236;54.504;9.588;2023-02-19T07:18:26;101814.47;;;2.24;100.00
8398;BME280;4236;54.504;9.588;2023-02-19T07:20:53;101809.81;;;2.28;100.00
8398;BME280;4236;54.504;9.588;2023-02-19T07:23:21;101821.91;;;2.42;100.00
8398;BME280;4236;54.504;9.588;2023-02-19T07:25:49;101817.03;;;2.59;100.00
8398;BME280;4236;54.504;9.588;2023-02-19T07:28:18;101824.22;;;2.79;100.00
8398;BME280;4236;54.504;9.588;2023-02-19T07:30:46;101821.56;;;2.91;100.00
8398;BME280;4236;54.504;9.588;2023-02-19T07:33:13;101822.63;;;3.10;100.00
8398;BME280;4236;54.504;9.588;2023-02-19T07:35:44;101834.94;;;3.21;100.00
8398;BME280;4236;54.504;9.588;2023-02-19T07:38:14;101844.41;;;3.23;100.00
8398;BME280;4236;54.504;9.588;2023-02-19T07:40:49;101848.59;;;3.26;100.00
8398;BME280;4236;54.504;9.588;2023-02-19T07:43:19;101848.47;;;3.27;100.00
8398;BME280;4236;54.504;9.588;2023-02-19T07:45:47;101848.81;;;3.23;100.00
8398;BME280;4236;54.504;9.588;2023-02-19T07:48:15;101844.88;;;3.28;100.00
8398;BME280;4236;54.504;9.588;2023-02-19T07:50:49;101854.69;;;3.26;100.00
8398;BME280;4236;54.504;9.588;2023-02-19T07:53:18;101850.25;;;3.27;100.00
8398;BME280;4236;54.504;9.588;2023-02-19T07:55:46;101860.09;;;3.25;100.00
8398;BME280;4236;54.504;9.588;2023-02-19T07:58:13;101854.44;;;3.29;100.00
8398;BME280;4236;54.504;9.588;2023-02-19T08:00:43;101858.78;;;3.30;100.00
8398;BME280;4236;54.504;9.588;2023-02-19T08:03:11;101858.88;;;3.29;100.00
8398;BME280;4236;54.504;9.588;2023-02-19T08:05:40;101862.56;;;3.38;100.00
8398;BME280;4236;54.504;9.588;2023-02-19T08:08:09;101864.16;;;3.40;100.00
8398;BME280;4236;54.504;9.588;2023-02-19T08:10:37;101878.41;;;3.49;100.00
8398;BME280;4236;54.504;9.588;2023-02-19T08:13:23;101868.31;;;3.54;100.00
8398;BME280;4236;54.504;9.588;2023-02-19T08:15:54;101866.97;;;3.59;100.00
8398;BME280;4236;54.504;9.588;2023-02-19T08:18:40;101866.47;;;3.65;100.00
8398;BME280;4236;54.504;9.588;2023-02-19T08:21:07;101873.69;;;3.63;100.00
8398;BME280;4236;54.504;9.588;2023-02-19T08:23:36;101871.16;;;3.62;100.00
8398;BME280;4236;54.504;9.588;2023-02-19T08:26:04;101880.50;;;3.66;100.00
8398;BME280;4236;54.504;9.588;2023-02-19T08:28:32;101879.50;;;3.78;100.00
8398;BME280;4236;54.504;9.588;2023-02-19T08:31:03;101885.59;;;3.89;100.00
8398;BME280;4236;54.504;9.588;2023-02-19T08:33:31;101901.06;;;3.83;100.00
8398;BME280;4236;54.504;9.588;2023-02-19T08:36:01;101897.09;;;3.88;100.00
8398;BME280;4236;54.504;9.588;2023-02-19T08:38:31;101908.97;;;3.94;100.00
8398;BME280;4236;54.504;9.588;2023-02-19T08:41:03;101918.78;;;4.03;100.00
8398;BME280;4236;54.504;9.588;2023-02-19T08:43:32;101916.00;;;4.05;100.00
8398;BME280;4236;54.504;9.588;2023-02-19T08:46:01;101908.28;;;4.13;100.00
8398;BME280;4236;54.504;9.588;2023-02-19T08:48:29;101916.69;;;4.18;100.00
8398;BME280;4236;54.504;9.588;2023-02-19T08:50:59;101931.50;;;4.30;100.00
8398;BME280;4236;54.504;9.588;2023-02-19T08:53:30;101938.78;;;4.37;100.00
8398;BME280;4236;54.504;9.588;2023-02-19T08:56:03;101944.66;;;4.41;100.00
8398;BME280;4236;54.504;9.588;2023-02-19T08:58:31;101934.78;;;4.43;100.00
8398;BME280;4236;54.504;9.588;2023-02-19T09:00:59;101937.75;;;4.50;100.00
8398;BME280;4236;54.504;9.588;2023-02-19T09:03:28;101941.50;;;4.47;100.00
8398;BME280;4236;54.504;9.588;2023-02-19T09:05:56;101945.09;;;4.46;100.00
8398;BME280;4236;54.504;9.588;2023-02-19T09:08:24;101956.94;;;4.52;100.00
8398;BME280;4236;54.504;9.588;2023-02-19T09:10:58;101960.63;;;4.60;100.00
8398;BME280;4236;54.504;9.588;2023-02-19T09:13:26;101969.03;;;4.65;100.00
8398;BME280;4236;54.504;9.588;2023-02-19T09:15:54;101954.06;;;4.75;100.00
8398;BME280;4236;54.504;9.588;2023-02-19T09:18:22;101955.47;;;4.79;100.00
8398;BME280;4236;54.504;9.588;2023-02-19T09:20:51;101956.38;;;4.89;100.00
8398;BME280;4236;54.504;9.588;2023-02-19T09:23:19;101946.94;;;4.96;100.00
8398;BME280;4236;54.504;9.588;2023-02-19T09:25:47;101934.22;;;5.11;100.00
8398;BME280;4236;54.504;9.588;2023-02-19T09:28:14;101951.38;;;5.17;100.00
8398;BME280;4236;54.504;9.588;2023-02-19T09:30:42;101954.84;;;5.17;100.00
8398;BME280;4236;54.504;9.588;2023-02-19T09:33:10;101962.91;;;5.16;100.00
8398;BME280;4236;54.504;9.588;2023-02-19T09:35:38;101966.16;;;5.19;100.00
8398;BME280;4236;54.504;9.588;2023-02-19T09:38:07;101976.63;;;5.30;100.00
8398;BME280;4236;54.504;9.588;2023-02-19T09:40:36;101984.59;;;5.40;100.00
8398;BME280;4236;54.504;9.588;2023-02-19T09:43:05;101983.88;;;5.38;100.00
8398;BME280;4236;54.504;9.588;2023-02-19T09:45:34;101992.34;;;5.32;100.00
8398;BME280;4236;54.504;9.588;2023-02-19T09:48:04;101995.25;;;5.29;100.00
8398;BME280;4236;54.504;9.588;2023-02-19T09:50:36;101992.00;;;5.46;100.00
8398;BME280;4236;54.504;9.588;2023-02-19T09:53:13;102009.28;;;5.50;100.00
8398;BME280;4236;54.504;9.588;2023-02-19T09:55:43;102023.44;;;5.39;100.00
8398;BME280;4236;54.504;9.588;2023-02-19T09:58:21;102029.56;;;5.40;100.00
8398;BME280;4236;54.504;9.588;2023-02-19T10:00:51;102030.44;;;5.50;100.00
8398;BME280;4236;54.504;9.588;2023-02-19T10:03:23;102029.38;;;5.52;100.00
8398;BME280;4236;54.504;9.588;2023-02-19T10:05:58;102020.59;;;5.62;100.00
8398;BME280;4236;54.504;9.588;2023-02-19T10:08:31;102027.47;;;5.74;100.00
8398;BME280;4236;54.504;9.588;2023-02-19T10:10:59;102030.69;;;5.77;100.00
8398;BME280;4236;54.504;9.588;2023-02-19T10:13:30;102050.47;;;5.73;100.00
8398;BME280;4236;54.504;9.588;2023-02-19T10:16:00;102044.44;;;5.92;100.00
8398;BME280;4236;54.504;9.588;2023-02-19T10:18:36;102041.25;;;5.98;100.00
8398;BME280;4236;54.504;9.588;2023-02-19T10:21:05;102045.97;;;5.94;100.00
8398;BME280;4236;54.504;9.588;2023-02-19T10:23:35;102058.31;;;6.15;100.00
8398;BME280;4236;54.504;9.588;2023-02-19T10:26:02;102060.38;;;6.11;100.00
8398;BME280;4236;54.504;9.588;2023-02-19T10:28:32;102056.47;;;6.05;100.00
8398;BME280;4236;54.504;9.588;2023-02-19T10:31:03;102053.00;;;6.15;100.00
8398;BME280;4236;54.504;9.588;2023-02-19T10:33:31;102058.44;;;6.13;100.00
8398;BME280;4236;54.504;9.588;2023-02-19T10:36:02;102057.50;;;6.24;100.00
8398;BME280;4236;54.504;9.588;2023-02-19T10:38:32;102053.75;;;6.36;100.00
8398;BME280;4236;54.504;9.588;2023-02-19T10:41:04;102060.59;;;6.48;100.00
8398;BME280;4236;54.504;9.588;2023-02-19T10:43:35;102054.75;;;6.54;100.00
8398;BME280;4236;54.504;9.588;2023-02-19T10:46:07;102072.75;;;6.60;100.00
8398;BME280;4236;54.504;9.588;2023-02-19T10:48:44;102073.00;;;6.76;100.00
8398;BME280;4236;54.504;9.588;2023-02-19T10:51:12;102074.81;;;6.66;100.00
8398;BME280;4236;54.504;9.588;2023-02-19T10:53:47;102067.56;;;6.49;100.00
8398;BME280;4236;54.504;9.588;2023-02-19T10:56:22;102077.47;;;6.56;100.00
8398;BME280;4236;54.504;9.588;2023-02-19T10:58:51;102071.63;;;6.62;100.00
8398;BME280;4236;54.504;9.588;2023-02-19T11:01:21;102079.56;;;6.72;100.00
8398;BME280;4236;54.504;9.588;2023-02-19T11:03:50;102086.56;;;6.83;100.00
8398;BME280;4236;54.504;9.588;2023-02-19T11:06:20;102088.94;;;6.95;100.00
8398;BME280;4236;54.504;9.588;2023-02-19T11:08:54;102091.72;;;6.94;100.00
8398;BME280;4236;54.504;9.588;2023-02-19T11:11:29;102075.41;;;6.89;100.00
8398;BME280;4236;54.504;9.588;2023-02-19T11:14:00;102080.53;;;7.00;100.00
8398;BME280;4236;54.504;9.588;2023-02-19T11:16:43;102086.53;;;7.02;100.00
8398;BME280;4236;54.504;9.588;2023-02-19T11:19:24;102083.47;;;6.97;100.00
8398;BME280;4236;54.504;9.588;2023-02-19T11:21:53;102086.56;;;6.83;100.00
8398;BME280;4236;54.504;9.588;2023-02-19T11:24:27;102102.19;;;6.57;100.00
8398;BME280;4236;54.504;9.588;2023-02-19T11:26:58;102090.59;;;6.67;100.00
8398;BME280;4236;54.504;9.588;2023-02-19T11:29:27;102098.84;;;6.74;100.00
8398;BME280;4236;54.504;9.588;2023-02-19T11:32:25;102102.06;;;6.78;100.00
8398;BME280;4236;54.504;9.588;2023-02-19T11:35:14;102091.44;;;6.78;100.00
8398;BME280;4236;54.504;9.588;2023-02-19T11:37:54;102086.00;;;6.79;100.00
8398;BME280;4236;54.504;9.588;2023-02-19T11:40:34;102064.63;;;6.90;100.00
8398;BME280;4236;54.504;9.588;2023-02-19T11:43:15;102075.91;;;7.02;100.00
8398;BME280;4236;54.504;9.588;2023-02-19T11:45:51;102069.22;;;7.17;100.00
8398;BME280;4236;54.504;9.588;2023-02-19T11:48:34;102077.03;;;7.18;100.00
8398;BME280;4236;54.504;9.588;2023-02-19T11:51:21;102079.81;;;7.17;100.00
8398;BME280;4236;54.504;9.588;2023-02-19T11:54:02;102071.72;;;7.28;100.00
8398;BME280;4236;54.504;9.588;2023-02-19T11:56:35;102086.63;;;7.39;100.00
8398;BME280;4236;54.504;9.588;2023-02-19T11:59:11;102082.44;;;7.82;100.00
8398;BME280;4236;54.504;9.588;2023-02-19T12:01:55;102084.13;;;7.74;100.00
8398;BME280;4236;54.504;9.588;2023-02-19T12:04:50;102081.25;;;7.67;100.00
8398;BME280;4236;54.504;9.588;2023-02-19T12:07:33;102086.44;;;7.96;100.00
8398;BME280;4236;54.504;9.588;2023-02-19T12:10:09;102092.06;;;8.20;100.00
8398;BME280;4236;54.504;9.588;2023-02-19T12:12:50;102092.16;;;8.28;100.00
8398;BME280;4236;54.504;9.588;2023-02-19T12:15:27;102100.00;;;8.30;100.00
8398;BME280;4236;54.504;9.588;2023-02-19T12:21:10;102087.97;;;7.99;100.00
8398;BME280;4236;54.504;9.588;2023-02-19T12:24:02;102080.53;;;8.02;100.00
8398;BME280;4236;54.504;9.588;2023-02-19T12:26:35;102084.50;;;8.16;100.00
8398;BME280;4236;54.504;9.588;2023-02-19T12:29:22;102091.47;;;8.26;100.00
8398;BME280;4236;54.504;9.588;2023-02-19T12:32:08;102084.75;;;8.32;100.00
8398;BME280;4236;54.504;9.588;2023-02-19T12:35:10;102087.13;;;7.98;100.00
8398;BME280;4236;54.504;9.588;2023-02-19T12:37:46;102075.81;;;7.59;100.00
8398;BME280;4236;54.504;9.588;2023-02-19T12:40:29;102065.66;;;7.45;100.00
8398;BME280;4236;54.504;9.588;2023-02-19T12:43:08;102051.00;;;7.78;100.00
8398;BME280;4236;54.504;9.588;2023-02-19T12:45:39;102060.13;;;8.03;100.00
8398;BME280;4236;54.504;9.588;2023-02-19T12:48:15;102057.88;;;8.25;100.00
8398;BME280;4236;54.504;9.588;2023-02-19T12:50:48;102054.69;;;8.49;100.00
8398;BME280;4236;54.504;9.588;2023-02-19T12:56:12;102053.03;;;8.48;100.00
8398;BME280;4236;54.504;9.588;2023-02-19T12:58:44;102050.94;;;7.97;100.00
8398;BME280;4236;54.504;9.588;2023-02-19T13:01:17;102054.84;;;7.66;100.00
8398;BME280;4236;54.504;9.588;2023-02-19T13:03:51;102054.84;;;7.66;100.00
8398;BME280;4236;54.504;9.588;2023-02-19T13:06:29;102059.00;;;7.68;100.00
8398;BME280;4236;54.504;9.588;2023-02-19T13:09:02;102074.88;;;7.88;100.00
8398;BME280;4236;54.504;9.588;2023-02-19T13:11:36;102069.53;;;7.97;100.00
8398;BME280;4236;54.504;9.588;2023-02-19T13:14:14;102071.34;;;7.97;100.00
8398;BME280;4236;54.504;9.588;2023-02-19T13:16:48;102060.88;;;8.13;100.00
8398;BME280;4236;54.504;9.588;2023-02-19T13:19:18;102059.91;;;8.14;100.00
8398;BME280;4236;54.504;9.588;2023-02-19T13:21:50;102052.91;;;8.13;100.00
8398;BME280;4236;54.504;9.588;2023-02-19T13:24:41;102056.16;;;8.07;100.00
8398;BME280;4236;54.504;9.588;2023-02-19T13:27:25;102055.94;;;8.00;100.00
8398;BME280;4236;54.504;9.588;2023-02-19T13:30:05;102064.06;;;7.99;100.00
8398;BME280;4236;54.504;9.588;2023-02-19T13:32:46;102070.03;;;8.01;100.00
8398;BME280;4236;54.504;9.588;2023-02-19T13:35:25;102072.03;;;7.99;100.00
8398;BME280;4236;54.504;9.588;2023-02-19T13:37:59;102064.09;;;7.89;100.00
8398;BME280;4236;54.504;9.588;2023-02-19T13:40:30;102069.53;;;7.97;100.00
8398;BME280;4236;54.504;9.588;2023-02-19T13:43:01;102067.84;;;7.96;100.00